Time;durP1;ratioP1;P1;durP2;ratioP2;P2;SDS_P1;SDS_P2;PMS_P1;PMS_P2;Temp;Humidity;BMP_temperature;BMP_pressure;BME280_temperature;BME280_humidity;BME280_pressure;Samples;Min_cycle;Max_cycle;Signal;HPM_P1;HPM_P2
2023/08/23 00:02:09;;;;;;;;;;;;;;;15.32;100.00;101806.31;7399170;19;19926;-39
2023/08/23 00:04:38;;;;;;;;;;;;;;;15.33;100.00;101791.59;7373604;19;19982;-38
2023/08/23 00:07:08;;;;;;;;;;;;;;;15.33;100.00;101756.06;7395244;19;20318;-40
2023/08/23 00:09:37;;;;;;;;;;;;;;;15.24;100.00;101743.59;7369774;19;19933;-39
2023/08/23 00:12:07;;;;;;;;;;;;;;;15.07;100.00;101735.16;7395505;19;20161;-40
2023/08/23 00:14:39;;;;;;;;;;;;;;;14.99;100.00;101724.47;7370900;19;19918;-38
2023/08/23 00:17:08;;;;;;;;;;;;;;;15.04;100.00;101711.69;7395715;19;20455;-37
2023/08/23 00:19:37;;;;;;;;;;;;;;;15.22;100.00;101697.59;7370796;19;19950;-40
2023/08/23 00:22:07;;;;;;;;;;;;;;;15.15;100.00;101695.59;7395443;19;20577;-40
2023/08/23 00:24:36;;;;;;;;;;;;;;;15.18;100.00;101686.19;7370830;19;19923;-39
2023/08/23 00:27:06;;;;;;;;;;;;;;;15.15;100.00;101680.88;7397615;19;19917;-40
2023/08/23 00:29:37;;;;;;;;;;;;;;;15.14;100.00;101671.31;7370588;19;19919;-40
2023/08/23 00:32:09;;;;;;;;;;;;;;;15.03;100.00;101670.03;7396413;19;19934;-40
2023/08/23 00:34:38;;;;;;;;;;;;;;;14.89;100.00;101656.50;7370827;19;20037;-39
2023/08/23 00:37:08;;;;;;;;;;;;;;;14.97;100.00;101653.38;7397189;19;20267;-37
2023/08/23 00:39:37;;;;;;;;;;;;;;;15.08;100.00;101648.56;7370596;19;19957;-40
2023/08/23 00:42:07;;;;;;;;;;;;;;;15.07;100.00;101645.94;7397946;19;19982;-37
2023/08/23 00:44:36;;;;;;;;;;;;;;;15.16;100.00;101653.16;7371933;19;19917;-41
2023/08/23 00:47:06;;;;;;;;;;;;;;;15.12;100.00;101645.28;7395061;19;19951;-42
2023/08/23 00:49:38;;;;;;;;;;;;;;;15.23;100.00;101637.88;7371245;19;19990;-39
2023/08/23 00:52:07;;;;;;;;;;;;;;;15.12;100.00;101636.56;7394718;19;20354;-40
2023/08/23 00:54:36;;;;;;;;;;;;;;;14.90;100.00;101638.38;7370062;19;20013;-38
2023/08/23 00:57:06;;;;;;;;;;;;;;;14.71;100.00;101648.03;7395477;19;19982;-39
2023/08/23 00:59:35;;;;;;;;;;;;;;;14.61;100.00;101640.69;7368964;19;19911;-39
2023/08/23 01:02:05;;;;;;;;;;;;;;;14.58;100.00;101640.59;7395547;19;19934;-40
2023/08/23 01:04:34;;;;;;;;;;;;;;;14.57;100.00;101633.63;7370125;19;20323;-40
2023/08/23 01:07:08;;;;;;;;;;;;;;;14.59;100.00;101621.59;7396089;19;20067;-39
2023/08/23 01:09:40;;;;;;;;;;;;;;;14.58;100.00;101625.88;7370108;19;19982;-41
2023/08/23 01:12:11;;;;;;;;;;;;;;;14.52;100.00;101623.03;7396995;19;20361;-40
2023/08/23 01:14:43;;;;;;;;;;;;;;;14.57;100.00;101623.25;7370225;19;19930;-40
2023/08/23 01:17:12;;;;;;;;;;;;;;;14.61;100.00;101616.47;7395281;19;19930;-40
2023/08/23 01:19:45;;;;;;;;;;;;;;;14.70;100.00;101615.09;7369785;19;20387;-40
2023/08/23 01:22:19;;;;;;;;;;;;;;;14.68;100.00;101608.94;7395770;19;19982;-40
2023/08/23 01:24:54;;;;;;;;;;;;;;;14.65;100.00;101614.03;7371797;19;19922;-41
2023/08/23 01:27:24;;;;;;;;;;;;;;;14.58;100.00;101606.84;7397038;19;19925;-39
2023/08/23 01:29:53;;;;;;;;;;;;;;;14.45;100.00;101615.84;7371443;19;19929;-38
2023/08/23 01:32:29;;;;;;;;;;;;;;;14.39;100.00;101608.72;7395635;19;20418;-39
2023/08/23 01:35:01;;;;;;;;;;;;;;;14.37;100.00;101606.88;7372149;19;19918;-40
2023/08/23 01:37:30;;;;;;;;;;;;;;;14.39;100.00;101606.13;7395793;19;19918;-40
2023/08/23 01:40:02;;;;;;;;;;;;;;;14.56;100.00;101604.16;7369462;19;19982;-38
2023/08/23 01:42:32;;;;;;;;;;;;;;;14.60;100.00;101587.00;7396791;19;19922;-39
2023/08/23 01:45:02;;;;;;;;;;;;;;;14.63;100.00;101586.22;7372876;19;19919;-40
2023/08/23 01:47:32;;;;;;;;;;;;;;;14.56;100.00;101585.13;7396151;19;19915;-40
2023/08/23 01:50:01;;;;;;;;;;;;;;;14.64;100.00;101581.09;7371507;19;20362;-39
2023/08/23 01:52:30;;;;;;;;;;;;;;;14.54;100.00;101587.66;7396234;19;19928;-41
2023/08/23 01:55:02;;;;;;;;;;;;;;;14.58;100.00;101583.47;7372440;19;19944;-39
2023/08/23 01:57:32;;;;;;;;;;;;;;;14.43;100.00;101587.25;7396405;19;19918;-40
2023/08/23 02:00:01;;;;;;;;;;;;;;;14.54;100.00;101584.16;7371954;19;20326;-40
2023/08/23 02:02:30;;;;;;;;;;;;;;;14.77;100.00;101589.41;7396616;19;19918;-41
2023/08/23 02:05:00;;;;;;;;;;;;;;;14.53;100.00;101593.69;7372111;19;19918;-40
2023/08/23 02:07:30;;;;;;;;;;;;;;;14.35;100.00;101596.44;7396261;19;19938;-40
2023/08/23 02:09:59;;;;;;;;;;;;;;;14.17;100.00;101600.03;7371494;19;20391;-39
2023/08/23 02:12:31;;;;;;;;;;;;;;;14.13;100.00;101599.88;7394071;19;20260;-39
2023/08/23 02:15:00;;;;;;;;;;;;;;;14.27;100.00;101610.81;7370075;19;19915;-39
2023/08/23 02:17:30;;;;;;;;;;;;;;;14.23;100.00;101612.41;7395205;19;20373;-39
2023/08/23 02:19:59;;;;;;;;;;;;;;;14.24;100.00;101602.88;7370751;19;19982;-40
2023/08/23 02:22:28;;;;;;;;;;;;;;;14.26;100.00;101598.66;7395532;19;19938;-40
2023/08/23 02:24:58;;;;;;;;;;;;;;;14.22;100.00;101599.34;7371631;19;19918;-40
2023/08/23 02:27:27;;;;;;;;;;;;;;;14.27;100.00;101603.94;7396923;19;19929;-40
2023/08/23 02:29:59;;;;;;;;;;;;;;;14.30;100.00;101609.22;7370986;19;19922;-39
2023/08/23 02:32:28;;;;;;;;;;;;;;;14.27;100.00;101608.22;7397352;19;19978;-41
2023/08/23 02:34:58;;;;;;;;;;;;;;;14.33;100.00;101605.88;7369428;19;19926;-40
2023/08/23 02:37:27;;;;;;;;;;;;;;;14.38;100.00;101601.75;7395505;19;19926;-40
2023/08/23 02:39:57;;;;;;;;;;;;;;;14.37;100.00;101599.09;7370353;19;19915;-40
2023/08/23 02:42:27;;;;;;;;;;;;;;;14.33;100.00;101592.88;7395033;19;20546;-42
2023/08/23 02:44:59;;;;;;;;;;;;;;;14.33;100.00;101590.28;7371207;19;19929;-39
2023/08/23 02:47:28;;;;;;;;;;;;;;;14.27;100.00;101583.16;7394803;19;19937;-40
2023/08/23 02:49:58;;;;;;;;;;;;;;;14.27;100.00;101579.66;7369855;19;19924;-41
2023/08/23 02:52:27;;;;;;;;;;;;;;;14.27;100.00;101577.97;7395258;19;19922;-38
2023/08/23 02:54:56;;;;;;;;;;;;;;;14.27;100.00;101577.06;7369586;19;19983;-38
2023/08/23 02:57:26;;;;;;;;;;;;;;;14.33;100.00;101572.13;7394361;19;19937;-38
2023/08/23 02:59:55;;;;;;;;;;;;;;;14.34;100.00;101573.00;7368812;19;20251;-39
2023/08/23 03:02:27;;;;;;;;;;;;;;;14.38;100.00;101565.41;7394719;19;19930;-39
2023/08/23 03:04:56;;;;;;;;;;;;;;;14.43;100.00;101569.06;7370299;19;20303;-39
2023/08/23 03:07:26;;;;;;;;;;;;;;;14.37;100.00;101571.44;7394504;19;19922;-40
2023/08/23 03:09:55;;;;;;;;;;;;;;;14.29;100.00;101567.63;7369381;19;19994;-40
2023/08/23 03:12:25;;;;;;;;;;;;;;;14.30;100.00;101572.00;7394320;19;19927;-39
2023/08/23 03:14:54;;;;;;;;;;;;;;;14.38;100.00;101581.00;7369223;19;19926;-39
2023/08/23 03:17:23;;;;;;;;;;;;;;;14.43;100.00;101583.75;7394024;19;19919;-39
2023/08/23 03:19:56;;;;;;;;;;;;;;;14.42;100.00;101580.25;7369358;19;19921;-37
2023/08/23 03:22:25;;;;;;;;;;;;;;;14.41;100.00;101578.50;7393294;19;19922;-40
2023/08/23 03:24:54;;;;;;;;;;;;;;;14.32;100.00;101591.13;7369664;19;20376;-40
2023/08/23 03:27:24;;;;;;;;;;;;;;;14.29;100.00;101596.19;7395101;19;20362;-40
2023/08/23 03:29:54;;;;;;;;;;;;;;;14.32;100.00;101596.31;7368477;19;19910;-40
2023/08/23 03:32:23;;;;;;;;;;;;;;;14.30;100.00;101595.34;7393754;19;20263;-39
2023/08/23 03:34:55;;;;;;;;;;;;;;;14.23;100.00;101599.44;7367665;19;19915;-39
2023/08/23 03:37:25;;;;;;;;;;;;;;;14.17;100.00;101594.84;7393273;19;19919;-40
2023/08/23 03:39:54;;;;;;;;;;;;;;;14.15;100.00;101601.72;7368892;19;19925;-40
2023/08/23 03:42:23;;;;;;;;;;;;;;;14.28;100.00;101600.50;7392944;19;20350;-39
2023/08/23 03:44:53;;;;;;;;;;;;;;;14.18;100.00;101604.44;7369210;19;19911;-39
2023/08/23 03:47:22;;;;;;;;;;;;;;;14.15;100.00;101603.44;7391926;19;20362;-39
2023/08/23 03:49:51;;;;;;;;;;;;;;;14.13;100.00;101599.88;7368517;19;19986;-39
2023/08/23 03:52:23;;;;;;;;;;;;;;;14.11;100.00;101606.72;7393198;19;19964;-39
2023/08/23 03:54:53;;;;;;;;;;;;;;;14.24;100.00;101608.09;7367721;19;20310;-41
2023/08/23 03:57:22;;;;;;;;;;;;;;;14.28;100.00;101609.97;7392557;19;20347;-39
2023/08/23 03:59:51;;;;;;;;;;;;;;;14.22;100.00;101608.03;7367850;19;20002;-39
2023/08/23 04:02:21;;;;;;;;;;;;;;;14.18;100.00;101609.63;7392401;19;20275;-39
2023/08/23 04:04:50;;;;;;;;;;;;;;;14.24;100.00;101602.88;7368240;19;19997;-38
2023/08/23 04:07:19;;;;;;;;;;;;;;;14.24;100.00;101613.28;7392323;19;20010;-39
2023/08/23 04:09:51;;;;;;;;;;;;;;;14.27;100.00;101610.81;7367774;19;19982;-36
2023/08/23 04:12:21;;;;;;;;;;;;;;;14.28;100.00;101610.88;7392378;19;19922;-38
2023/08/23 04:14:50;;;;;;;;;;;;;;;14.38;100.00;101611.25;7367353;19;19915;-39
2023/08/23 04:17:20;;;;;;;;;;;;;;;14.22;100.00;101605.44;7392430;19;19926;-39
2023/08/23 04:19:49;;;;;;;;;;;;;;;14.20;100.00;101611.41;7367350;19;19994;-39
2023/08/23 04:22:18;;;;;;;;;;;;;;;14.24;100.00;101623.66;7393595;19;19921;-39
2023/08/23 04:24:48;;;;;;;;;;;;;;;14.24;100.00;101613.28;7367345;19;19917;-40
2023/08/23 04:27:20;;;;;;;;;;;;;;;14.19;100.00;101615.69;7391503;19;20332;-40
2023/08/23 04:29:49;;;;;;;;;;;;;;;14.10;100.00;101623.97;7367004;19;19933;-37
2023/08/23 04:32:19;;;;;;;;;;;;;;;14.05;100.00;101630.69;7391980;19;19915;-40
2023/08/23 04:34:48;;;;;;;;;;;;;;;14.01;100.00;101632.28;7369838;19;19922;-38
2023/08/23 04:37:17;;;;;;;;;;;;;;;14.03;100.00;101627.16;7398005;19;19994;-37
2023/08/23 04:39:47;;;;;;;;;;;;;;;14.02;100.00;101627.97;7373307;19;19923;-38
2023/08/23 04:42:16;;;;;;;;;;;;;;;13.98;100.00;101620.88;7400300;19;19925;-38
2023/08/23 04:44:48;;;;;;;;;;;;;;;13.90;100.00;101624.03;7374827;19;19933;-39
2023/08/23 04:47:17;;;;;;;;;;;;;;;13.91;100.00;101627.53;7397597;19;19935;-39
2023/08/23 04:49:48;;;;;;;;;;;;;;;13.92;100.00;101618.94;7374111;19;19911;-38
2023/08/23 04:52:18;;;;;;;;;;;;;;;14.12;100.00;101618.88;7397898;19;19922;-38
2023/08/23 04:54:47;;;;;;;;;;;;;;;14.26;100.00;101612.50;7372916;19;19918;-42
2023/08/23 04:57:16;;;;;;;;;;;;;;;14.28;100.00;101607.41;7397436;19;19922;-41
2023/08/23 04:59:48;;;;;;;;;;;;;;;14.27;100.00;101597.84;7373039;19;19941;-39
2023/08/23 05:02:18;;;;;;;;;;;;;;;14.05;100.00;101607.34;7397609;19;19918;-40
2023/08/23 05:04:47;;;;;;;;;;;;;;;14.09;100.00;101614.44;7373774;19;19918;-40
2023/08/23 05:07:16;;;;;;;;;;;;;;;14.06;100.00;101614.31;7397240;19;19937;-39
2023/08/23 05:09:46;;;;;;;;;;;;;;;14.08;100.00;101622.16;7372716;19;19985;-38
2023/08/23 05:12:15;;;;;;;;;;;;;;;14.14;100.00;101628.50;7397080;19;19919;-39
2023/08/23 05:14:44;;;;;;;;;;;;;;;14.20;100.00;101626.97;7372417;19;19918;-38
2023/08/23 05:17:16;;;;;;;;;;;;;;;14.40;100.00;101636.44;7398972;19;20282;-38
2023/08/23 05:19:46;;;;;;;;;;;;;;;14.46;100.00;101630.59;7372628;19;19933;-40
2023/08/23 05:22:15;;;;;;;;;;;;;;;14.46;100.00;101630.59;7398890;19;19921;-38
2023/08/23 05:24:44;;;;;;;;;;;;;;;14.46;100.00;101625.41;7372750;19;19957;-38
2023/08/23 05:27:14;;;;;;;;;;;;;;;14.48;100.00;101630.66;7398536;19;20558;-38
2023/08/23 05:29:44;;;;;;;;;;;;;;;14.49;100.00;101637.63;7371501;19;19922;-39
2023/08/23 05:32:13;;;;;;;;;;;;;;;14.53;100.00;101636.94;7396929;19;19986;-38
2023/08/23 05:34:45;;;;;;;;;;;;;;;14.58;100.00;101635.41;7371251;19;19966;-40
2023/08/23 05:37:14;;;;;;;;;;;;;;;14.62;100.00;101634.72;7396370;19;19918;-38
2023/08/23 05:39:44;;;;;;;;;;;;;;;14.66;100.00;101636.56;7370899;19;19970;-40
2023/08/23 05:42:13;;;;;;;;;;;;;;;14.68;100.00;101629.72;7395280;19;19982;-40
2023/08/23 05:44:43;;;;;;;;;;;;;;;14.76;100.00;101630.06;7372240;19;19978;-39
2023/08/23 05:47:12;;;;;;;;;;;;;;;14.85;100.00;101634.72;7395908;19;19922;-40
2023/08/23 05:49:42;;;;;;;;;;;;;;;14.92;100.00;101635.84;7371656;19;19923;-40
2023/08/23 05:52:14;;;;;;;;;;;;;;;15.04;100.00;101620.72;7395976;19;19935;-40
2023/08/23 05:54:44;;;;;;;;;;;;;;;15.14;100.00;101608.94;7371211;19;20339;-40
2023/08/23 05:57:13;;;;;;;;;;;;;;;15.10;100.00;101623.56;7396028;19;19934;-38
2023/08/23 05:59:42;;;;;;;;;;;;;;;15.18;100.00;101633.34;7370746;19;20577;-39
2023/08/23 06:02:11;;;;;;;;;;;;;;;15.23;100.00;101637.88;7395866;19;19918;-38
2023/08/23 06:04:41;;;;;;;;;;;;;;;15.32;100.00;101652.03;7370927;19;19918;-37
2023/08/23 06:07:11;;;;;;;;;;;;;;;15.41;100.00;101661.88;7395850;19;19986;-39
2023/08/23 06:09:43;;;;;;;;;;;;;;;15.50;100.00;101649.22;7369827;19;19919;-38
2023/08/23 06:12:12;;;;;;;;;;;;;;;15.61;100.00;101650.50;7395267;19;19926;-39
2023/08/23 06:14:41;;;;;;;;;;;;;;;15.70;100.00;101655.13;7371179;19;19924;-39
2023/08/23 06:17:11;;;;;;;;;;;;;;;15.78;100.00;101656.28;7394378;19;19914;-40
2023/08/23 06:19:40;;;;;;;;;;;;;;;15.79;100.00;101657.13;7370169;19;19939;-37
2023/08/23 06:22:09;;;;;;;;;;;;;;;15.88;100.00;101664.38;7397556;19;19937;-40
2023/08/23 06:24:39;;;;;;;;;;;;;;;15.91;100.00;101670.56;7370790;19;19926;-40
2023/08/23 06:27:11;;;;;;;;;;;;;;;16.05;100.00;101672.81;7394735;19;20365;-40
2023/08/23 06:29:40;;;;;;;;;;;;;;;16.12;100.00;101685.19;7369715;19;19918;-41
2023/08/23 06:32:10;;;;;;;;;;;;;;;16.20;100.00;101680.22;7395504;19;19940;-39
2023/08/23 06:34:40;;;;;;;;;;;;;;;16.23;100.00;101693.38;7370007;19;19921;-38
2023/08/23 06:37:11;;;;;;;;;;;;;;;16.35;100.00;101702.41;7395558;19;19923;-40
2023/08/23 06:39:40;;;;;;;;;;;;;;;16.39;100.00;101714.69;7369738;19;19918;-41
2023/08/23 06:42:12;;;;;;;;;;;;;;;16.53;100.00;101739.47;7394289;19;19982;-40
2023/08/23 06:44:41;;;;;;;;;;;;;;;16.55;100.00;101739.50;7368041;19;19942;-39
2023/08/23 06:47:11;;;;;;;;;;;;;;;16.73;100.00;101744.44;7394146;19;19986;-39
2023/08/23 06:49:40;;;;;;;;;;;;;;;16.77;100.00;101764.53;7369006;19;19918;-40
2023/08/23 06:52:09;;;;;;;;;;;;;;;16.78;100.00;101776.75;7394389;19;19923;-39
2023/08/23 06:54:39;;;;;;;;;;;;;;;16.86;100.00;101775.28;7369115;19;19922;-39
2023/08/23 06:57:08;;;;;;;;;;;;;;;16.89;100.00;101774.50;7390797;19;19990;-40
2023/08/23 06:59:40;;;;;;;;;;;;;;;16.75;100.00;101784.47;7359581;19;20272;-38
2023/08/23 07:02:10;;;;;;;;;;;;;;;16.94;100.00;101787.66;7394159;19;19918;-40
2023/08/23 07:04:39;;;;;;;;;;;;;;;17.08;100.00;101786.41;7369069;19;20361;-39
2023/08/23 07:07:09;;;;;;;;;;;;;;;17.08;100.00;101789.00;7393212;19;20316;-39
2023/08/23 07:09:39;;;;;;;;;;;;;;;17.18;100.00;101781.47;7367929;19;19982;-39
2023/08/23 07:12:09;;;;;;;;;;;;;;;17.20;100.00;101800.66;7393979;19;19940;-38
2023/08/23 07:14:40;;;;;;;;;;;;;;;17.21;100.00;101807.63;7368987;19;19929;-42
2023/08/23 07:17:10;;;;;;;;;;;;;;;17.19;100.00;101814.53;7393124;19;19986;-39
2023/08/23 07:19:39;;;;;;;;;;;;;;;17.21;100.00;101815.47;7367698;19;19915;-38
2023/08/23 07:22:09;;;;;;;;;;;;;;;17.21;100.00;101818.06;7393554;19;19926;-40
2023/08/23 07:24:38;;;;;;;;;;;;;;;17.14;100.00;101820.47;7368167;19;19919;-45
2023/08/23 07:27:07;;;;;;;;;;;;;;;17.12;100.00;101835.22;7393032;19;19911;-39
2023/08/23 07:29:37;;;;;;;;;;;;;;;17.21;100.00;101839.81;7368220;19;20340;-40
2023/08/23 07:32:10;;;;;;;;;;;;;;;17.19;100.00;101851.94;7393289;19;19931;-43
2023/08/23 07:34:40;;;;;;;;;;;;;;;17.36;100.00;101852.47;7367149;19;19982;-39
2023/08/23 07:37:09;;;;;;;;;;;;;;;17.53;100.00;101852.06;7392956;19;20317;-39
2023/08/23 07:39:39;;;;;;;;;;;;;;;17.51;100.00;101870.31;7366677;19;19917;-40
2023/08/23 07:42:08;;;;;;;;;;;;;;;17.65;100.00;101885.50;7393007;19;19927;-41
2023/08/23 07:44:37;;;;;;;;;;;;;;;17.67;100.00;101908.19;7367292;19;19993;-39
2023/08/23 07:47:09;;;;;;;;;;;;;;;17.70;100.00;101928.28;7393591;19;19933;-37
2023/08/23 07:49:39;;;;;;;;;;;;;;;17.96;100.00;101933.41;7367034;19;19919;-40
2023/08/23 07:52:08;;;;;;;;;;;;;;;18.00;100.00;101947.44;7392249;19;19918;-40
2023/08/23 07:54:37;;;;;;;;;;;;;;;17.87;100.00;101957.50;7367447;19;20332;-41
2023/08/23 07:57:07;;;;;;;;;;;;;;;17.98;100.00;101954.31;7391692;19;19939;-41
2023/08/23 07:59:36;;;;;;;;;;;;;;;18.02;100.00;101971.84;7367334;19;19998;-40
2023/08/23 08:02:06;;;;;;;;;;;;;;;18.08;100.00;101966.84;7392657;19;19930;-40
2023/08/23 08:04:38;;;;;;;;;;;;;;;18.10;100.00;101969.53;7368033;19;19915;-40
2023/08/23 08:07:07;;;;;;;;;;;;;;;18.26;100.00;101981.31;7392329;19;19922;-40
2023/08/23 08:09:37;;;;;;;;;;;;;;;18.50;100.00;101986.34;7369445;19;19923;-39
2023/08/23 08:12:06;;;;;;;;;;;;;;;18.53;100.00;101988.16;7398406;19;19922;-41
2023/08/23 08:14:36;;;;;;;;;;;;;;;18.26;100.00;102012.66;7375129;19;19910;-41
2023/08/23 08:17:05;;;;;;;;;;;;;;;18.16;100.00;102022.81;7397359;19;19922;-39
2023/08/23 08:19:37;;;;;;;;;;;;;;;18.18;100.00;102009.78;7373678;19;19990;-39
2023/08/23 08:22:07;;;;;;;;;;;;;;;18.15;100.00;102021.03;7397913;19;19926;-39
2023/08/23 08:24:36;;;;;;;;;;;;;;;18.43;100.00;102024.50;7374463;19;19926;-40
2023/08/23 08:27:06;;;;;;;;;;;;;;;18.42;100.00;102033.19;7397836;19;19926;-39
2023/08/23 08:29:36;;;;;;;;;;;;;;;18.38;100.00;102036.53;7373456;19;19914;-37
2023/08/23 08:32:05;;;;;;;;;;;;;;;18.34;100.00;102038.16;7398129;19;20329;-39
2023/08/23 08:34:37;;;;;;;;;;;;;;;18.64;100.00;102033.78;7373743;19;19994;-39
2023/08/23 08:37:07;;;;;;;;;;;;;;;18.76;100.00;102036.75;7400079;19;19933;-38
2023/08/23 08:39:36;;;;;;;;;;;;;;;18.82;100.00;102040.38;7373513;19;19920;-38
2023/08/23 08:42:06;;;;;;;;;;;;;;;18.91;100.00;102051.06;7398708;19;19919;-38
2023/08/23 08:44:35;;;;;;;;;;;;;;;18.73;100.00;102056.69;7374819;19;19922;-39
2023/08/23 08:47:05;;;;;;;;;;;;;;;19.02;100.00;102064.44;7396667;19;19910;-40
2023/08/23 08:49:34;;;;;;;;;;;;;;;19.13;100.00;102065.66;7372730;19;20303;-40
2023/08/23 08:52:06;;;;;;;;;;;;;;;19.19;100.00;102069.28;7397228;19;20264;-38
2023/08/23 08:54:36;;;;;;;;;;;;;;;19.32;100.00;102054.81;7373380;19;19922;-37
2023/08/23 08:57:06;;;;;;;;;;;;;;;19.30;100.00;102076.56;7398806;19;19917;-38
2023/08/23 08:59:35;;;;;;;;;;;;;;;19.47;100.00;102067.41;7372361;19;20366;-39
2023/08/23 09:02:05;;;;;;;;;;;;;;;19.37;100.00;102066.25;7396976;19;20269;-38
2023/08/23 09:04:34;;;;;;;;;;;;;;;19.25;100.00;102070.34;7372629;19;19922;-39
2023/08/23 09:07:03;;;;;;;;;;;;;;;19.24;100.00;102083.38;7396626;19;19925;-38
2023/08/23 09:10:41;;;;;;;12.65;6.60;;;;;;;19.15;100.00;102089.25;7425299;19;20320;-40
2023/08/23 09:13:11;;;;;;;8.55;4.18;;;;;;;19.20;100.00;102098.09;7403806;19;20378;-41
2023/08/23 09:15:40;;;;;;;13.40;7.43;;;;;;;19.46;100.00;102087.44;7423400;19;20440;-41
2023/08/23 09:18:10;;;;;;;12.07;6.57;;;;;;;19.65;100.00;102101.00;7402319;19;20300;-42
2023/08/23 09:20:40;;;;;;;12.35;6.72;;;;;;;19.49;100.00;102097.13;7422226;19;20384;-41
2023/08/23 09:23:09;;;;;;;7.13;3.90;;;;;;;19.34;100.00;102108.06;7403055;19;20305;-41
2023/08/23 09:25:42;;;;;;;13.30;7.10;;;;;;;19.52;100.00;102107.66;7422988;19;20423;-40
2023/08/23 09:28:14;;;;;;;12.27;6.83;;;;;;;19.56;100.00;102107.78;7400962;19;20299;-43
2023/08/23 09:33:40;;;;;;;19.10;9.40;;;;;;;19.21;100.00;102120.81;7400563;19;20345;-42
2023/08/23 09:36:09;;;;;;;20.23;10.65;;;;;;;19.45;100.00;102106.63;7427991;19;20368;-42
2023/08/23 09:38:41;;;;;;;12.55;5.63;;;;;;;19.82;100.00;102099.72;7401410;19;20326;-44
2023/08/23 09:41:11;;;;;;;59.33;29.35;;;;;;;19.90;100.00;102114.72;7424950;19;20709;-42
2023/08/23 09:43:40;;;;;;;7.85;3.45;;;;;;;19.97;100.00;102119.28;7402253;19;20338;-44
2023/08/23 09:46:10;;;;;;;8.35;2.80;;;;;;;19.89;100.00;102110.34;7427958;19;20352;-44
2023/08/23 09:48:44;;;;;;;3.85;2.05;;;;;;;20.12;100.00;102110.00;7401261;19;20403;-44
2023/08/23 09:51:13;;;;;;;10.35;5.22;;;;;;;19.84;100.00;102111.09;7424785;19;20359;-44
2023/08/23 09:53:45;;;;;;;10.27;4.40;;;;;;;20.04;100.00;102113.34;7401280;19;20327;-44
2023/08/23 09:56:16;;;;;;;8.35;2.53;;;;;;;20.10;100.00;102112.63;7424688;19;20372;-42
2023/08/23 09:58:46;;;;;;;8.07;4.23;;;;;;;19.82;100.00;102112.78;7400575;19;20319;-44
2023/08/23 10:01:17;;;;;;;5.60;2.30;;;;;;;19.91;100.00;102111.25;7423619;19;20367;-44
2023/08/23 10:03:52;;;;;;;6.95;3.58;;;;;;;19.83;100.00;102103.19;7397366;19;20331;-43
2023/08/23 10:06:22;;;;;;;5.70;2.92;;;;;;;19.98;100.00;102091.38;7423686;19;20451;-42
2023/08/23 10:08:52;;;;;;;6.07;2.80;;;;;;;20.23;100.00;102098.06;7400675;19;20334;-44
2023/08/23 10:11:22;;;;;;;11.80;6.22;;;;;;;20.43;100.00;102100.22;7423802;19;20899;-44
2023/08/23 10:13:55;;;;;;;4.78;2.80;;;;;;;20.74;100.00;102079.91;7400032;19;20695;-44
2023/08/23 10:16:25;;;;;;;11.90;5.53;;;;;;;20.90;100.00;102097.78;7424070;19;20372;-44
2023/08/23 10:18:57;;;;;;;10.73;4.95;;;;;;;20.56;100.00;102102.25;7400008;19;20317;-43
2023/08/23 10:21:28;;;;;;;4.50;2.30;;;;;;;20.73;100.00;102099.13;7426743;19;20892;-43
2023/08/23 10:23:57;;;;;;;4.63;2.58;;;;;;;21.08;100.00;102101.63;7399463;19;20324;-44
2023/08/23 10:26:28;;;;;;;3.47;1.70;;;;;;;21.14;100.00;102093.88;7426315;19;20358;-43
2023/08/23 10:28:58;;;;;;;14.85;7.18;;;;;;;21.21;100.00;102096.59;7398562;19;20860;-44
2023/08/23 10:31:29;;;;;;;5.15;1.88;;;;;;;21.35;100.00;102095.09;7425918;19;20373;-44
2023/08/23 10:34:01;;;;;;;15.02;7.95;;;;;;;21.42;100.00;102102.22;7397874;19;20351;-44
2023/08/23 10:36:32;;;;;;;14.93;6.75;;;;;;;21.30;100.00;102096.75;7423865;19;20364;-42
2023/08/23 10:39:06;;;;;;;15.40;7.65;;;;;;;20.84;100.00;102102.91;7399761;19;20312;-44
2023/08/23 10:41:35;;;;;;;12.68;5.22;;;;;;;20.82;100.00;102073.06;7424114;19;20370;-44
2023/08/23 10:44:05;;;;;;;8.40;4.30;;;;;;;21.10;100.00;102062.28;7380263;19;20335;-44
2023/08/23 10:46:45;;;;;;;4.00;1.40;;;;;;;21.29;100.00;102050.38;7397077;19;21005;-44
2023/08/23 10:49:20;;;;;;;6.50;2.88;;;;;;;21.34;100.00;102056.59;7369341;19;20333;-43
2023/08/23 10:51:49;;;;;;;5.65;2.50;;;;;;;21.54;100.00;102014.06;7396649;19;20356;-43
2023/08/23 10:54:19;;;;;;;9.20;3.10;;;;;;;21.52;100.00;101990.38;7370420;19;20323;-44
2023/08/23 10:56:49;;;;;;;10.80;4.70;;;;;;;21.29;100.00;101895.56;7396141;19;20431;-43
2023/08/23 10:59:18;;;;;;;7.10;2.72;;;;;;;21.43;100.00;101878.25;7369604;19;20420;-43
2023/08/23 11:01:48;;;;;;;6.85;3.42;;;;;;;21.55;100.00;101741.06;7393799;19;20710;-44
2023/08/23 11:04:20;;;;;;;5.53;2.70;;;;;;;21.69;100.00;101763.94;7370212;19;20332;-44
2023/08/23 11:06:50;;;;;;;7.40;2.70;;;;;;;21.42;100.00;101677.00;7396771;19;20902;-44
2023/08/23 11:09:19;;;;;;;6.95;1.85;;;;;;;21.89;100.00;101829.84;7369317;19;20410;-43
2023/08/23 11:11:49;;;;;;;6.05;2.35;;;;;;;22.11;100.00;101778.41;7393777;19;20356;-43
2023/08/23 11:15:04;;;;;;;4.90;1.77;;;;;;;22.15;100.00;101737.28;7397730;19;20368;-39
2023/08/23 11:17:34;;;;;;;17.75;9.20;;;;;;;21.91;100.00;101737.94;7425927;19;20353;-35
2023/08/23 11:20:04;;;;;;;4.82;1.70;;;;;;;22.15;100.00;101866.03;7402083;19;20878;-39
2023/08/23 11:22:34;;;;;;;12.55;5.45;;;;;;;22.12;100.00;101780.19;7425866;19;20898;-39
2023/08/23 11:25:03;;;;;;;10.23;5.07;;;;;;;22.13;100.00;101715.38;7402755;19;20339;-36
2023/08/23 11:27:33;;;;;;;14.75;6.93;;;;;;;21.94;100.00;101654.78;7424498;19;20344;-38
2023/08/23 11:30:07;;;;;;;12.70;5.23;;;;;;;21.87;100.00;101674.00;7401680;19;20423;-41
2023/08/23 11:32:38;;;;;;;10.25;4.68;;;;;;;22.12;100.00;101696.13;7424773;19;20376;-39
2023/08/23 11:35:08;;;;;;;13.20;6.37;;;;;;;21.85;100.00;101662.59;7401548;19;20688;-39
2023/08/23 11:37:38;;;;;;;14.75;7.82;;;;;;;21.83;100.00;101682.69;7425018;19;20366;-41
2023/08/23 11:40:10;;;;;;;4.88;1.95;;;;;;;22.05;100.00;101685.53;7402056;19;20343;-40
2023/08/23 11:42:41;;;;;;;18.15;9.68;;;;;;;22.38;100.00;101676.16;7416390;19;20369;-35
2023/08/23 11:45:13;;;;;;;5.00;1.65;;;;;;;22.45;100.00;101720.00;7427875;19;20366;-40
2023/08/23 11:47:43;;;;;;;14.35;7.47;;;;;;;21.92;100.00;101653.91;7399142;19;20435;-41
2023/08/23 11:50:13;;;;;;;14.27;7.50;;;;;;;21.58;100.00;101620.31;7422280;19;20355;-40
2023/08/23 11:52:43;;;;;;;10.43;4.82;;;;;;;21.91;100.00;101628.50;7402329;19;20425;-39
2023/08/23 11:55:12;;;;;;;21.88;11.10;;;;;;;22.06;100.00;101655.75;7422476;19;20444;-40
2023/08/23 11:57:42;;;;;;;42.95;23.52;;;;;;;22.06;100.00;101612.00;7398954;19;20366;-38
2023/08/23 12:00:15;;;;;;;7.75;3.40;;;;;;;22.38;100.00;101592.94;7421988;19;21244;-36
2023/08/23 12:02:45;;;;;;;17.93;9.27;;;;;;;22.28;100.00;101592.84;7399092;19;20446;-41
2023/08/23 12:05:15;;;;;;;17.98;8.60;;;;;;;21.94;100.00;101606.66;7422500;19;20806;-39
2023/08/23 12:07:44;;;;;;;10.25;4.63;;;;;;;22.04;100.00;101647.00;7399587;19;20396;-37
2023/08/23 12:10:14;;;;;;;71.27;43.13;;;;;;;22.22;100.00;101631.38;7423192;19;20853;-47
2023/08/23 12:12:44;;;;;;;10.27;3.63;;;;;;;22.46;100.00;101615.75;7400449;19;20690;-49
2023/08/23 12:15:19;;;;;;;15.82;8.98;;;;;;;22.67;100.00;101572.94;7423051;19;20426;-46
2023/08/23 12:17:49;;;;;;;6.35;2.60;;;;;;;22.92;100.00;101552.84;7400387;19;20380;-45
2023/08/23 12:20:19;;;;;;;9.80;5.15;;;;;;;23.31;100.00;101516.13;7423492;19;20367;-45
2023/08/23 12:22:50;;;;;;;6.20;3.13;;;;;;;23.50;100.00;101476.63;7401836;19;20381;-45
2023/08/23 12:25:19;;;;;;;14.43;6.93;;;;;;;23.62;100.00;101374.78;7409772;19;20490;-48